sensor_id;sensor_type;location;lat;lon;timestamp;P1;durP1;ratioP1;P2;durP2;ratioP2
25567;SDS011;13455;51.480;7.594;2023-10-31T00:02:00;3.40;;;1.52;;
25567;SDS011;13455;51.480;7.594;2023-10-31T00:04:26;3.08;;;1.40;;
25567;SDS011;13455;51.480;7.594;2023-10-31T00:06:52;2.20;;;1.50;;
25567;SDS011;13455;51.480;7.594;2023-10-31T00:09:17;2.75;;;1.65;;
25567;SDS011;13455;51.480;7.594;2023-10-31T00:11:43;3.00;;;1.70;;
25567;SDS011;13455;51.480;7.594;2023-10-31T00:14:09;2.40;;;1.70;;
25567;SDS011;13455;51.480;7.594;2023-10-31T00:16:35;2.30;;;1.80;;
25567;SDS011;13455;51.480;7.594;2023-10-31T00:19:00;3.00;;;2.10;;
25567;SDS011;13455;51.480;7.594;2023-10-31T00:21:26;2.55;;;2.10;;
25567;SDS011;13455;51.480;7.594;2023-10-31T00:23:51;2.55;;;2.20;;
25567;SDS011;13455;51.480;7.594;2023-10-31T00:26:17;3.00;;;2.20;;
25567;SDS011;13455;51.480;7.594;2023-10-31T00:28:43;2.90;;;2.30;;
25567;SDS011;13455;51.480;7.594;2023-10-31T00:31:08;2.90;;;2.50;;
25567;SDS011;13455;51.480;7.594;2023-10-31T00:33:36;4.43;;;2.60;;
25567;SDS011;13455;51.480;7.594;2023-10-31T00:36:02;4.10;;;2.80;;
25567;SDS011;13455;51.480;7.594;2023-10-31T00:38:28;2.85;;;2.50;;
25567;SDS011;13455;51.480;7.594;2023-10-31T00:40:54;3.37;;;2.70;;
25567;SDS011;13455;51.480;7.594;2023-10-31T00:43:19;2.67;;;2.40;;
25567;SDS011;13455;51.480;7.594;2023-10-31T00:45:45;2.90;;;2.50;;
25567;SDS011;13455;51.480;7.594;2023-10-31T00:48:11;2.70;;;2.30;;
25567;SDS011;13455;51.480;7.594;2023-10-31T00:50:36;2.63;;;2.20;;
25567;SDS011;13455;51.480;7.594;2023-10-31T00:53:02;3.10;;;2.37;;
25567;SDS011;13455;51.480;7.594;2023-10-31T00:55:27;3.87;;;2.57;;
25567;SDS011;13455;51.480;7.594;2023-10-31T00:57:53;2.88;;;2.50;;
25567;SDS011;13455;51.480;7.594;2023-10-31T01:00:19;4.35;;;2.50;;
25567;SDS011;13455;51.480;7.594;2023-10-31T01:02:44;4.60;;;2.72;;
25567;SDS011;13455;51.480;7.594;2023-10-31T01:05:10;3.20;;;2.80;;
25567;SDS011;13455;51.480;7.594;2023-10-31T01:07:36;3.92;;;2.95;;
25567;SDS011;13455;51.480;7.594;2023-10-31T01:10:02;2.73;;;2.50;;
25567;SDS011;13455;51.480;7.594;2023-10-31T01:12:28;2.60;;;2.40;;
25567;SDS011;13455;51.480;7.594;2023-10-31T01:14:54;3.77;;;2.10;;
25567;SDS011;13455;51.480;7.594;2023-10-31T01:17:20;3.40;;;2.07;;
25567;SDS011;13455;51.480;7.594;2023-10-31T01:19:46;2.72;;;1.60;;
25567;SDS011;13455;51.480;7.594;2023-10-31T01:22:12;2.38;;;1.60;;
25567;SDS011;13455;51.480;7.594;2023-10-31T01:24:37;2.40;;;1.80;;
25567;SDS011;13455;51.480;7.594;2023-10-31T01:27:03;2.17;;;1.80;;
25567;SDS011;13455;51.480;7.594;2023-10-31T01:29:29;1.95;;;1.65;;
25567;SDS011;13455;51.480;7.594;2023-10-31T01:31:54;1.83;;;1.50;;
25567;SDS011;13455;51.480;7.594;2023-10-31T01:34:20;2.17;;;1.40;;
25567;SDS011;13455;51.480;7.594;2023-10-31T01:36:46;2.20;;;1.13;;
25567;SDS011;13455;51.480;7.594;2023-10-31T01:39:11;2.28;;;1.10;;
25567;SDS011;13455;51.480;7.594;2023-10-31T01:41:37;1.90;;;0.90;;
25567;SDS011;13455;51.480;7.594;2023-10-31T01:44:02;2.27;;;0.93;;
25567;SDS011;13455;51.480;7.594;2023-10-31T01:46:28;2.30;;;0.90;;
25567;SDS011;13455;51.480;7.594;2023-10-31T01:48:54;2.00;;;0.80;;
25567;SDS011;13455;51.480;7.594;2023-10-31T01:51:19;1.90;;;0.90;;
25567;SDS011;13455;51.480;7.594;2023-10-31T01:53:45;2.30;;;1.00;;
25567;SDS011;13455;51.480;7.594;2023-10-31T01:56:12;2.40;;;1.20;;
25567;SDS011;13455;51.480;7.594;2023-10-31T01:58:38;1.95;;;1.15;;
25567;SDS011;13455;51.480;7.594;2023-10-31T02:01:04;4.03;;;1.50;;
25567;SDS011;13455;51.480;7.594;2023-10-31T02:03:31;4.82;;;1.52;;
25567;SDS011;13455;51.480;7.594;2023-10-31T02:05:58;4.78;;;1.92;;
25567;SDS011;13455;51.480;7.594;2023-10-31T02:08:24;3.40;;;1.88;;
25567;SDS011;13455;51.480;7.594;2023-10-31T02:10:50;4.28;;;2.20;;
25567;SDS011;13455;51.480;7.594;2023-10-31T02:13:17;3.53;;;2.20;;
25567;SDS011;13455;51.480;7.594;2023-10-31T02:15:43;4.05;;;2.50;;
25567;SDS011;13455;51.480;7.594;2023-10-31T02:18:10;3.58;;;2.60;;
25567;SDS011;13455;51.480;7.594;2023-10-31T02:20:36;4.20;;;2.80;;
25567;SDS011;13455;51.480;7.594;2023-10-31T02:23:02;5.33;;;2.63;;
25567;SDS011;13455;51.480;7.594;2023-10-31T02:25:28;4.87;;;3.00;;
25567;SDS011;13455;51.480;7.594;2023-10-31T02:27:54;3.83;;;2.90;;
25567;SDS011;13455;51.480;7.594;2023-10-31T02:30:20;4.80;;;3.17;;
25567;SDS011;13455;51.480;7.594;2023-10-31T02:32:45;4.00;;;2.90;;
25567;SDS011;13455;51.480;7.594;2023-10-31T02:35:11;5.13;;;3.00;;
25567;SDS011;13455;51.480;7.594;2023-10-31T02:37:37;4.95;;;2.80;;
25567;SDS011;13455;51.480;7.594;2023-10-31T02:40:03;5.50;;;2.83;;
25567;SDS011;13455;51.480;7.594;2023-10-31T02:42:29;3.35;;;2.50;;
25567;SDS011;13455;51.480;7.594;2023-10-31T02:44:55;4.17;;;2.50;;
25567;SDS011;13455;51.480;7.594;2023-10-31T02:47:21;4.23;;;2.40;;
25567;SDS011;13455;51.480;7.594;2023-10-31T02:49:46;3.57;;;2.30;;
25567;SDS011;13455;51.480;7.594;2023-10-31T02:52:12;4.55;;;2.17;;
25567;SDS011;13455;51.480;7.594;2023-10-31T02:54:38;4.35;;;2.00;;
25567;SDS011;13455;51.480;7.594;2023-10-31T02:57:03;4.50;;;1.88;;
25567;SDS011;13455;51.480;7.594;2023-10-31T02:59:29;4.68;;;1.98;;
25567;SDS011;13455;51.480;7.594;2023-10-31T03:01:55;3.58;;;1.88;;
25567;SDS011;13455;51.480;7.594;2023-10-31T03:04:22;3.03;;;1.80;;
25567;SDS011;13455;51.480;7.594;2023-10-31T03:06:48;3.00;;;1.50;;
25567;SDS011;13455;51.480;7.594;2023-10-31T03:09:13;2.53;;;1.47;;
25567;SDS011;13455;51.480;7.594;2023-10-31T03:11:39;2.08;;;1.30;;
25567;SDS011;13455;51.480;7.594;2023-10-31T03:14:05;2.50;;;1.40;;
25567;SDS011;13455;51.480;7.594;2023-10-31T03:16:31;1.92;;;1.10;;
25567;SDS011;13455;51.480;7.594;2023-10-31T03:18:57;2.90;;;1.20;;
25567;SDS011;13455;51.480;7.594;2023-10-31T03:21:23;2.17;;;1.17;;
25567;SDS011;13455;51.480;7.594;2023-10-31T03:23:49;2.40;;;1.40;;
25567;SDS011;13455;51.480;7.594;2023-10-31T03:26:18;3.15;;;1.45;;
25567;SDS011;13455;51.480;7.594;2023-10-31T03:28:44;3.30;;;2.10;;
25567;SDS011;13455;51.480;7.594;2023-10-31T03:31:11;4.85;;;2.50;;
25567;SDS011;13455;51.480;7.594;2023-10-31T03:33:37;4.80;;;2.80;;
25567;SDS011;13455;51.480;7.594;2023-10-31T03:36:03;4.72;;;3.40;;
25567;SDS011;13455;51.480;7.594;2023-10-31T03:38:30;4.57;;;3.30;;
25567;SDS011;13455;51.480;7.594;2023-10-31T03:40:56;5.10;;;3.90;;
25567;SDS011;13455;51.480;7.594;2023-10-31T03:43:21;7.70;;;4.10;;
25567;SDS011;13455;51.480;7.594;2023-10-31T03:45:47;6.70;;;4.17;;
25567;SDS011;13455;51.480;7.594;2023-10-31T03:48:13;9.30;;;4.97;;
25567;SDS011;13455;51.480;7.594;2023-10-31T03:50:39;7.45;;;4.70;;
25567;SDS011;13455;51.480;7.594;2023-10-31T03:53:04;8.70;;;5.13;;
25567;SDS011;13455;51.480;7.594;2023-10-31T03:55:30;8.30;;;5.15;;
25567;SDS011;13455;51.480;7.594;2023-10-31T03:57:55;10.93;;;5.50;;
25567;SDS011;13455;51.480;7.594;2023-10-31T04:00:21;9.40;;;5.20;;
25567;SDS011;13455;51.480;7.594;2023-10-31T04:02:47;7.80;;;5.60;;
25567;SDS011;13455;51.480;7.594;2023-10-31T04:05:12;9.43;;;5.50;;
25567;SDS011;13455;51.480;7.594;2023-10-31T04:07:38;9.13;;;5.70;;
25567;SDS011;13455;51.480;7.594;2023-10-31T04:10:04;10.60;;;5.80;;
25567;SDS011;13455;51.480;7.594;2023-10-31T04:12:30;8.75;;;5.68;;
25567;SDS011;13455;51.480;7.594;2023-10-31T04:14:56;9.10;;;5.53;;
25567;SDS011;13455;51.480;7.594;2023-10-31T04:17:22;7.67;;;4.73;;
25567;SDS011;13455;51.480;7.594;2023-10-31T04:19:48;9.93;;;5.37;;
25567;SDS011;13455;51.480;7.594;2023-10-31T04:22:13;8.23;;;5.07;;
25567;SDS011;13455;51.480;7.594;2023-10-31T04:24:39;7.27;;;4.60;;
25567;SDS011;13455;51.480;7.594;2023-10-31T04:27:05;6.82;;;4.30;;
25567;SDS011;13455;51.480;7.594;2023-10-31T04:29:32;7.03;;;4.20;;
25567;SDS011;13455;51.480;7.594;2023-10-31T04:31:57;8.00;;;4.20;;
25567;SDS011;13455;51.480;7.594;2023-10-31T04:34:23;7.20;;;4.20;;
25567;SDS011;13455;51.480;7.594;2023-10-31T04:36:49;6.70;;;4.50;;
25567;SDS011;13455;51.480;7.594;2023-10-31T04:39:15;7.75;;;4.57;;
25567;SDS011;13455;51.480;7.594;2023-10-31T04:41:40;6.68;;;4.70;;
25567;SDS011;13455;51.480;7.594;2023-10-31T04:44:06;7.03;;;5.13;;
25567;SDS011;13455;51.480;7.594;2023-10-31T04:46:31;9.20;;;4.77;;
25567;SDS011;13455;51.480;7.594;2023-10-31T04:48:57;7.90;;;4.75;;
25567;SDS011;13455;51.480;7.594;2023-10-31T04:51:23;6.45;;;4.80;;
25567;SDS011;13455;51.480;7.594;2023-10-31T04:53:48;7.60;;;4.80;;
25567;SDS011;13455;51.480;7.594;2023-10-31T04:56:14;7.47;;;4.90;;
25567;SDS011;13455;51.480;7.594;2023-10-31T04:58:41;6.63;;;4.60;;
25567;SDS011;13455;51.480;7.594;2023-10-31T05:01:08;7.55;;;4.80;;
25567;SDS011;13455;51.480;7.594;2023-10-31T05:03:34;7.67;;;5.37;;
25567;SDS011;13455;51.480;7.594;2023-10-31T05:06:00;7.10;;;4.93;;
25567;SDS011;13455;51.480;7.594;2023-10-31T05:08:25;7.17;;;4.97;;
25567;SDS011;13455;51.480;7.594;2023-10-31T05:10:51;6.90;;;4.80;;
25567;SDS011;13455;51.480;7.594;2023-10-31T05:13:16;8.05;;;4.60;;
25567;SDS011;13455;51.480;7.594;2023-10-31T05:15:42;6.43;;;4.47;;
25567;SDS011;13455;51.480;7.594;2023-10-31T05:18:07;6.30;;;4.40;;
25567;SDS011;13455;51.480;7.594;2023-10-31T05:20:34;6.40;;;4.22;;
25567;SDS011;13455;51.480;7.594;2023-10-31T05:22:59;5.85;;;3.90;;
25567;SDS011;13455;51.480;7.594;2023-10-31T05:25:25;6.57;;;4.43;;
25567;SDS011;13455;51.480;7.594;2023-10-31T05:27:51;4.97;;;4.10;;
25567;SDS011;13455;51.480;7.594;2023-10-31T05:30:17;6.00;;;3.90;;
25567;SDS011;13455;51.480;7.594;2023-10-31T05:32:43;5.93;;;3.90;;
25567;SDS011;13455;51.480;7.594;2023-10-31T05:35:09;6.15;;;3.78;;
25567;SDS011;13455;51.480;7.594;2023-10-31T05:37:35;4.55;;;3.20;;
25567;SDS011;13455;51.480;7.594;2023-10-31T05:40:01;5.77;;;3.30;;
25567;SDS011;13455;51.480;7.594;2023-10-31T05:42:27;4.50;;;3.10;;
25567;SDS011;13455;51.480;7.594;2023-10-31T05:44:54;4.57;;;3.30;;
25567;SDS011;13455;51.480;7.594;2023-10-31T05:47:20;5.28;;;3.40;;
25567;SDS011;13455;51.480;7.594;2023-10-31T05:49:46;6.83;;;3.77;;
25567;SDS011;13455;51.480;7.594;2023-10-31T05:52:11;6.50;;;3.72;;
25567;SDS011;13455;51.480;7.594;2023-10-31T05:54:37;5.18;;;4.20;;
25567;SDS011;13455;51.480;7.594;2023-10-31T05:57:03;7.22;;;4.20;;
25567;SDS011;13455;51.480;7.594;2023-10-31T05:59:28;5.20;;;4.20;;
25567;SDS011;13455;51.480;7.594;2023-10-31T06:01:55;7.30;;;4.70;;
25567;SDS011;13455;51.480;7.594;2023-10-31T06:04:21;6.47;;;5.00;;
25567;SDS011;13455;51.480;7.594;2023-10-31T06:06:46;7.40;;;4.97;;
25567;SDS011;13455;51.480;7.594;2023-10-31T06:09:12;6.70;;;4.97;;
25567;SDS011;13455;51.480;7.594;2023-10-31T06:11:40;7.60;;;4.07;;
25567;SDS011;13455;51.480;7.594;2023-10-31T06:14:07;6.43;;;4.10;;
25567;SDS011;13455;51.480;7.594;2023-10-31T06:16:33;6.55;;;4.75;;
25567;SDS011;13455;51.480;7.594;2023-10-31T06:19:04;6.60;;;4.88;;
25567;SDS011;13455;51.480;7.594;2023-10-31T06:21:29;6.90;;;5.07;;
25567;SDS011;13455;51.480;7.594;2023-10-31T06:23:55;7.60;;;5.60;;
25567;SDS011;13455;51.480;7.594;2023-10-31T06:26:20;9.20;;;6.60;;
25567;SDS011;13455;51.480;7.594;2023-10-31T06:28:46;9.37;;;7.20;;
25567;SDS011;13455;51.480;7.594;2023-10-31T06:31:11;10.30;;;7.37;;
25567;SDS011;13455;51.480;7.594;2023-10-31T06:33:37;10.90;;;7.63;;
25567;SDS011;13455;51.480;7.594;2023-10-31T06:36:03;12.20;;;8.60;;
25567;SDS011;13455;51.480;7.594;2023-10-31T06:38:29;11.85;;;8.73;;
25567;SDS011;13455;51.480;7.594;2023-10-31T06:40:54;11.93;;;9.03;;
25567;SDS011;13455;51.480;7.594;2023-10-31T06:43:22;11.02;;;8.98;;
25567;SDS011;13455;51.480;7.594;2023-10-31T06:45:47;13.52;;;9.13;;
25567;SDS011;13455;51.480;7.594;2023-10-31T06:48:13;12.93;;;9.63;;
25567;SDS011;13455;51.480;7.594;2023-10-31T06:50:38;11.80;;;9.57;;
25567;SDS011;13455;51.480;7.594;2023-10-31T06:53:04;13.00;;;10.13;;
25567;SDS011;13455;51.480;7.594;2023-10-31T06:55:29;13.45;;;9.90;;
25567;SDS011;13455;51.480;7.594;2023-10-31T06:57:55;14.10;;;10.40;;
25567;SDS011;13455;51.480;7.594;2023-10-31T07:00:20;12.93;;;10.23;;
25567;SDS011;13455;51.480;7.594;2023-10-31T07:02:46;14.47;;;10.20;;
25567;SDS011;13455;51.480;7.594;2023-10-31T07:05:12;15.15;;;11.32;;
25567;SDS011;13455;51.480;7.594;2023-10-31T07:07:39;15.25;;;11.38;;
25567;SDS011;13455;51.480;7.594;2023-10-31T07:10:05;15.10;;;11.10;;
25567;SDS011;13455;51.480;7.594;2023-10-31T07:12:31;15.63;;;11.02;;
25567;SDS011;13455;51.480;7.594;2023-10-31T07:14:56;15.07;;;11.32;;
25567;SDS011;13455;51.480;7.594;2023-10-31T07:17:23;14.45;;;11.50;;
25567;SDS011;13455;51.480;7.594;2023-10-31T07:19:50;15.02;;;11.38;;
25567;SDS011;13455;51.480;7.594;2023-10-31T07:22:15;14.32;;;11.63;;
25567;SDS011;13455;51.480;7.594;2023-10-31T07:24:41;16.27;;;11.07;;
25567;SDS011;13455;51.480;7.594;2023-10-31T07:27:07;13.38;;;10.82;;
25567;SDS011;13455;51.480;7.594;2023-10-31T07:29:33;15.07;;;10.50;;
25567;SDS011;13455;51.480;7.594;2023-10-31T07:31:59;13.67;;;10.50;;
25567;SDS011;13455;51.480;7.594;2023-10-31T07:34:25;12.73;;;10.20;;
25567;SDS011;13455;51.480;7.594;2023-10-31T07:36:51;13.13;;;9.97;;
25567;SDS011;13455;51.480;7.594;2023-10-31T07:39:16;12.10;;;9.80;;
25567;SDS011;13455;51.480;7.594;2023-10-31T07:41:42;12.57;;;9.43;;
25567;SDS011;13455;51.480;7.594;2023-10-31T07:44:07;12.23;;;8.93;;
25567;SDS011;13455;51.480;7.594;2023-10-31T07:46:33;11.77;;;8.63;;
25567;SDS011;13455;51.480;7.594;2023-10-31T07:48:58;10.70;;;8.37;;
25567;SDS011;13455;51.480;7.594;2023-10-31T07:51:24;11.47;;;8.23;;
25567;SDS011;13455;51.480;7.594;2023-10-31T07:53:50;10.60;;;8.03;;
25567;SDS011;13455;51.480;7.594;2023-10-31T07:56:15;10.38;;;7.88;;
25567;SDS011;13455;51.480;7.594;2023-10-31T07:58:42;12.10;;;7.60;;
25567;SDS011;13455;51.480;7.594;2023-10-31T08:01:08;12.90;;;7.90;;
25567;SDS011;13455;51.480;7.594;2023-10-31T08:03:36;9.55;;;7.50;;
25567;SDS011;13455;51.480;7.594;2023-10-31T08:06:02;9.93;;;7.20;;
25567;SDS011;13455;51.480;7.594;2023-10-31T08:08:30;8.77;;;6.63;;
25567;SDS011;13455;51.480;7.594;2023-10-31T08:10:56;7.43;;;6.60;;
25567;SDS011;13455;51.480;7.594;2023-10-31T08:13:23;8.90;;;6.30;;
25567;SDS011;13455;51.480;7.594;2023-10-31T08:15:49;7.28;;;6.00;;
25567;SDS011;13455;51.480;7.594;2023-10-31T08:18:14;7.23;;;6.10;;
25567;SDS011;13455;51.480;7.594;2023-10-31T08:20:40;9.60;;;6.55;;
25567;SDS011;13455;51.480;7.594;2023-10-31T08:23:08;8.40;;;6.30;;
25567;SDS011;13455;51.480;7.594;2023-10-31T08:25:33;7.93;;;5.90;;
25567;SDS011;13455;51.480;7.594;2023-10-31T08:27:59;8.20;;;6.00;;
25567;SDS011;13455;51.480;7.594;2023-10-31T08:30:25;8.77;;;6.50;;
25567;SDS011;13455;51.480;7.594;2023-10-31T08:32:50;8.18;;;6.53;;
25567;SDS011;13455;51.480;7.594;2023-10-31T08:35:16;9.05;;;6.43;;
25567;SDS011;13455;51.480;7.594;2023-10-31T08:37:41;8.93;;;6.70;;
25567;SDS011;13455;51.480;7.594;2023-10-31T08:40:07;9.80;;;6.77;;
25567;SDS011;13455;51.480;7.594;2023-10-31T08:42:33;9.20;;;7.22;;
25567;SDS011;13455;51.480;7.594;2023-10-31T08:44:59;10.55;;;6.93;;
25567;SDS011;13455;51.480;7.594;2023-10-31T08:47:24;8.77;;;7.47;;
25567;SDS011;13455;51.480;7.594;2023-10-31T08:49:50;8.73;;;6.60;;
25567;SDS011;13455;51.480;7.594;2023-10-31T08:52:16;9.53;;;6.90;;
25567;SDS011;13455;51.480;7.594;2023-10-31T08:54:42;9.13;;;6.72;;
25567;SDS011;13455;51.480;7.594;2023-10-31T08:57:08;9.00;;;7.40;;
25567;SDS011;13455;51.480;7.594;2023-10-31T08:59:34;9.30;;;7.07;;
25567;SDS011;13455;51.480;7.594;2023-10-31T09:02:00;7.95;;;6.65;;
25567;SDS011;13455;51.480;7.594;2023-10-31T09:04:26;9.82;;;6.35;;
25567;SDS011;13455;51.480;7.594;2023-10-31T09:06:51;7.60;;;6.50;;
25567;SDS011;13455;51.480;7.594;2023-10-31T09:09:17;6.93;;;6.23;;
25567;SDS011;13455;51.480;7.594;2023-10-31T09:11:43;7.03;;;5.93;;
25567;SDS011;13455;51.480;7.594;2023-10-31T09:14:09;7.97;;;5.85;;
25567;SDS011;13455;51.480;7.594;2023-10-31T09:16:34;6.73;;;5.47;;
25567;SDS011;13455;51.480;7.594;2023-10-31T09:19:00;6.10;;;5.20;;
25567;SDS011;13455;51.480;7.594;2023-10-31T09:21:26;8.07;;;5.50;;
25567;SDS011;13455;51.480;7.594;2023-10-31T09:23:51;6.50;;;5.28;;
25567;SDS011;13455;51.480;7.594;2023-10-31T09:26:17;7.00;;;5.20;;
25567;SDS011;13455;51.480;7.594;2023-10-31T09:28:43;5.82;;;5.10;;
25567;SDS011;13455;51.480;7.594;2023-10-31T09:31:15;8.17;;;5.33;;
25567;SDS011;13455;51.480;7.594;2023-10-31T09:33:43;7.78;;;5.18;;
25567;SDS011;13455;51.480;7.594;2023-10-31T09:36:10;6.50;;;4.85;;
25567;SDS011;13455;51.480;7.594;2023-10-31T09:38:36;6.68;;;4.70;;
25567;SDS011;13455;51.480;7.594;2023-10-31T09:41:02;6.50;;;4.60;;
25567;SDS011;13455;51.480;7.594;2023-10-31T09:43:28;7.70;;;4.63;;
25567;SDS011;13455;51.480;7.594;2023-10-31T09:45:54;4.87;;;4.13;;
25567;SDS011;13455;51.480;7.594;2023-10-31T09:48:21;5.07;;;4.43;;
25567;SDS011;13455;51.480;7.594;2023-10-31T09:50:47;6.28;;;4.22;;
25567;SDS011;13455;51.480;7.594;2023-10-31T09:53:14;5.35;;;4.05;;
25567;SDS011;13455;51.480;7.594;2023-10-31T09:55:43;6.72;;;4.10;;
25567;SDS011;13455;51.480;7.594;2023-10-31T09:58:11;6.80;;;3.90;;
25567;SDS011;13455;51.480;7.594;2023-10-31T10:00:37;6.10;;;3.90;;
25567;SDS011;13455;51.480;7.594;2023-10-31T10:03:05;6.15;;;3.92;;
25567;SDS011;13455;51.480;7.594;2023-10-31T10:05:33;4.60;;;3.80;;
25567;SDS011;13455;51.480;7.594;2023-10-31T10:08:00;5.17;;;3.70;;
25567;SDS011;13455;51.480;7.594;2023-10-31T10:10:26;5.20;;;3.83;;
25567;SDS011;13455;51.480;7.594;2023-10-31T10:12:52;6.47;;;3.90;;
25567;SDS011;13455;51.480;7.594;2023-10-31T10:15:18;6.78;;;3.88;;
25567;SDS011;13455;51.480;7.594;2023-10-31T10:17:50;7.70;;;4.03;;
25567;SDS011;13455;51.480;7.594;2023-10-31T10:20:17;7.82;;;4.25;;
25567;SDS011;13455;51.480;7.594;2023-10-31T10:22:43;6.43;;;4.13;;
25567;SDS011;13455;51.480;7.594;2023-10-31T10:25:10;5.90;;;3.67;;
25567;SDS011;13455;51.480;7.594;2023-10-31T10:27:39;7.25;;;3.80;;
25567;SDS011;13455;51.480;7.594;2023-10-31T10:30:07;8.90;;;3.90;;
25567;SDS011;13455;51.480;7.594;2023-10-31T10:32:34;6.55;;;3.65;;
25567;SDS011;13455;51.480;7.594;2023-10-31T10:35:00;5.78;;;3.60;;
25567;SDS011;13455;51.480;7.594;2023-10-31T10:37:29;7.22;;;3.70;;
25567;SDS011;13455;51.480;7.594;2023-10-31T10:39:55;6.93;;;3.73;;
25567;SDS011;13455;51.480;7.594;2023-10-31T10:42:44;7.40;;;3.83;;
25567;SDS011;13455;51.480;7.594;2023-10-31T10:45:11;6.55;;;3.45;;
25567;SDS011;13455;51.480;7.594;2023-10-31T10:47:39;7.15;;;3.60;;
25567;SDS011;13455;51.480;7.594;2023-10-31T10:50:07;6.57;;;3.65;;
25567;SDS011;13455;51.480;7.594;2023-10-31T10:52:37;6.83;;;3.30;;
25567;SDS011;13455;51.480;7.594;2023-10-31T10:55:18;6.68;;;3.35;;
25567;SDS011;13455;51.480;7.594;2023-10-31T11:00:19;7.00;;;3.67;;
25567;SDS011;13455;51.480;7.594;2023-10-31T11:02:49;7.43;;;3.67;;
25567;SDS011;13455;51.480;7.594;2023-10-31T11:05:17;8.10;;;3.93;;
25567;SDS011;13455;51.480;7.594;2023-10-31T11:07:43;7.47;;;4.10;;
25567;SDS011;13455;51.480;7.594;2023-10-31T11:10:10;10.07;;;4.70;;
25567;SDS011;13455;51.480;7.594;2023-10-31T11:12:36;8.33;;;4.10;;
25567;SDS011;13455;51.480;7.594;2023-10-31T11:15:04;7.88;;;4.50;;
25567;SDS011;13455;51.480;7.594;2023-10-31T11:17:33;9.37;;;4.10;;
25567;SDS011;13455;51.480;7.594;2023-10-31T11:20:00;6.60;;;4.28;;
25567;SDS011;13455;51.480;7.594;2023-10-31T11:22:39;7.93;;;4.20;;
25567;SDS011;13455;51.480;7.594;2023-10-31T11:25:09;9.07;;;4.30;;
25567;SDS011;13455;51.480;7.594;2023-10-31T11:27:37;8.30;;;4.05;;
25567;SDS011;13455;51.480;7.594;2023-10-31T11:32:54;12.55;;;4.90;;
25567;SDS011;13455;51.480;7.594;2023-10-31T11:35:21;9.68;;;4.70;;
25567;SDS011;13455;51.480;7.594;2023-10-31T11:37:48;8.73;;;4.60;;
25567;SDS011;13455;51.480;7.594;2023-10-31T11:40:25;10.07;;;4.82;;
25567;SDS011;13455;51.480;7.594;2023-10-31T11:42:56;7.27;;;4.73;;
25567;SDS011;13455;51.480;7.594;2023-10-31T11:45:35;9.77;;;4.40;;
25567;SDS011;13455;51.480;7.594;2023-10-31T11:48:12;8.10;;;4.43;;
25567;SDS011;13455;51.480;7.594;2023-10-31T11:50:38;9.10;;;4.65;;
25567;SDS011;13455;51.480;7.594;2023-10-31T11:53:11;7.18;;;4.47;;
25567;SDS011;13455;51.480;7.594;2023-10-31T11:55:40;7.20;;;4.30;;
25567;SDS011;13455;51.480;7.594;2023-10-31T12:00:44;11.68;;;3.83;;
25567;SDS011;13455;51.480;7.594;2023-10-31T12:03:10;7.50;;;3.75;;
25567;SDS011;13455;51.480;7.594;2023-10-31T12:05:36;8.93;;;3.70;;
25567;SDS011;13455;51.480;7.594;2023-10-31T12:08:02;8.13;;;3.30;;
25567;SDS011;13455;51.480;7.594;2023-10-31T12:10:28;6.27;;;3.10;;
25567;SDS011;13455;51.480;7.594;2023-10-31T12:12:55;7.13;;;3.03;;
25567;SDS011;13455;51.480;7.594;2023-10-31T12:15:22;7.50;;;3.25;;
25567;SDS011;13455;51.480;7.594;2023-10-31T12:17:48;9.88;;;3.20;;
25567;SDS011;13455;51.480;7.594;2023-10-31T12:20:14;6.18;;;2.88;;
25567;SDS011;13455;51.480;7.594;2023-10-31T12:22:41;7.88;;;3.00;;
25567;SDS011;13455;51.480;7.594;2023-10-31T12:25:08;7.93;;;2.90;;
25567;SDS011;13455;51.480;7.594;2023-10-31T12:27:45;7.30;;;3.00;;
25567;SDS011;13455;51.480;7.594;2023-10-31T12:30:12;8.50;;;2.90;;
25567;SDS011;13455;51.480;7.594;2023-10-31T12:32:39;11.05;;;2.60;;
25567;SDS011;13455;51.480;7.594;2023-10-31T12:35:06;8.27;;;2.47;;
25567;SDS011;13455;51.480;7.594;2023-10-31T12:37:42;6.97;;;2.53;;
25567;SDS011;13455;51.480;7.594;2023-10-31T12:40:10;7.40;;;2.40;;
25567;SDS011;13455;51.480;7.594;2023-10-31T12:42:46;7.10;;;2.30;;
25567;SDS011;13455;51.480;7.594;2023-10-31T12:45:13;6.05;;;2.30;;
25567;SDS011;13455;51.480;7.594;2023-10-31T12:47:39;5.82;;;2.00;;
25567;SDS011;13455;51.480;7.594;2023-10-31T12:55:16;6.85;;;1.95;;
25567;SDS011;13455;51.480;7.594;2023-10-31T12:57:42;6.32;;;1.77;;
25567;SDS011;13455;51.480;7.594;2023-10-31T13:00:09;8.45;;;1.90;;
25567;SDS011;13455;51.480;7.594;2023-10-31T13:02:37;6.35;;;1.80;;
25567;SDS011;13455;51.480;7.594;2023-10-31T13:07:37;7.10;;;1.90;;
25567;SDS011;13455;51.480;7.594;2023-10-31T13:10:02;7.80;;;1.90;;
25567;SDS011;13455;51.480;7.594;2023-10-31T13:12:30;6.32;;;1.70;;
25567;SDS011;13455;51.480;7.594;2023-10-31T13:14:56;7.20;;;1.90;;
25567;SDS011;13455;51.480;7.594;2023-10-31T13:17:21;6.40;;;1.67;;
25567;SDS011;13455;51.480;7.594;2023-10-31T13:19:47;6.90;;;1.52;;
25567;SDS011;13455;51.480;7.594;2023-10-31T13:22:12;4.82;;;1.60;;
25567;SDS011;13455;51.480;7.594;2023-10-31T13:24:38;5.17;;;1.57;;
25567;SDS011;13455;51.480;7.594;2023-10-31T13:27:05;4.03;;;1.50;;
25567;SDS011;13455;51.480;7.594;2023-10-31T13:29:32;5.70;;;1.60;;
25567;SDS011;13455;51.480;7.594;2023-10-31T13:31:58;4.80;;;1.75;;
25567;SDS011;13455;51.480;7.594;2023-10-31T13:34:24;6.80;;;1.80;;
25567;SDS011;13455;51.480;7.594;2023-10-31T13:36:50;3.88;;;1.63;;
25567;SDS011;13455;51.480;7.594;2023-10-31T13:39:16;5.27;;;1.63;;
25567;SDS011;13455;51.480;7.594;2023-10-31T13:41:43;6.55;;;1.67;;
25567;SDS011;13455;51.480;7.594;2023-10-31T13:44:08;5.10;;;1.55;;
25567;SDS011;13455;51.480;7.594;2023-10-31T13:46:34;7.03;;;1.67;;
25567;SDS011;13455;51.480;7.594;2023-10-31T13:49:00;4.97;;;1.60;;
25567;SDS011;13455;51.480;7.594;2023-10-31T13:51:25;5.80;;;1.80;;
25567;SDS011;13455;51.480;7.594;2023-10-31T13:53:51;5.47;;;1.70;;
25567;SDS011;13455;51.480;7.594;2023-10-31T13:56:16;6.03;;;1.60;;
25567;SDS011;13455;51.480;7.594;2023-10-31T13:58:42;5.07;;;1.70;;
25567;SDS011;13455;51.480;7.594;2023-10-31T14:01:08;5.60;;;1.90;;
25567;SDS011;13455;51.480;7.594;2023-10-31T14:03:34;4.57;;;1.60;;
25567;SDS011;13455;51.480;7.594;2023-10-31T14:05:59;4.80;;;1.60;;
25567;SDS011;13455;51.480;7.594;2023-10-31T14:08:25;4.20;;;1.40;;
25567;SDS011;13455;51.480;7.594;2023-10-31T14:10:51;4.82;;;1.58;;
25567;SDS011;13455;51.480;7.594;2023-10-31T14:13:17;6.95;;;1.50;;
25567;SDS011;13455;51.480;7.594;2023-10-31T14:15:45;3.97;;;1.40;;
25567;SDS011;13455;51.480;7.594;2023-10-31T14:18:11;6.18;;;1.63;;
25567;SDS011;13455;51.480;7.594;2023-10-31T14:20:38;4.95;;;1.40;;
25567;SDS011;13455;51.480;7.594;2023-10-31T14:23:05;5.25;;;1.50;;
25567;SDS011;13455;51.480;7.594;2023-10-31T14:25:31;4.43;;;1.30;;
25567;SDS011;13455;51.480;7.594;2023-10-31T14:27:56;5.20;;;1.60;;
25567;SDS011;13455;51.480;7.594;2023-10-31T14:30:22;5.57;;;1.60;;
25567;SDS011;13455;51.480;7.594;2023-10-31T14:32:47;6.55;;;1.35;;
25567;SDS011;13455;51.480;7.594;2023-10-31T14:35:13;5.03;;;1.47;;
25567;SDS011;13455;51.480;7.594;2023-10-31T14:37:39;3.50;;;1.40;;
25567;SDS011;13455;51.480;7.594;2023-10-31T14:40:05;4.77;;;1.70;;
25567;SDS011;13455;51.480;7.594;2023-10-31T14:42:31;3.88;;;1.50;;
25567;SDS011;13455;51.480;7.594;2023-10-31T14:44:57;4.30;;;1.70;;
25567;SDS011;13455;51.480;7.594;2023-10-31T14:47:22;4.75;;;1.60;;
25567;SDS011;13455;51.480;7.594;2023-10-31T14:49:48;3.90;;;1.60;;
25567;SDS011;13455;51.480;7.594;2023-10-31T14:52:13;5.63;;;1.57;;
25567;SDS011;13455;51.480;7.594;2023-10-31T14:54:39;3.97;;;1.42;;
25567;SDS011;13455;51.480;7.594;2023-10-31T14:57:05;2.80;;;1.30;;